sensor_id;sensor_type;location;lat;lon;timestamp;temperature;humidity
20066;DHT22;10193;48.884;9.182;2022-10-16T00:00:39;18.70;80.30
20066;DHT22;10193;48.884;9.182;2022-10-16T00:03:07;18.70;80.50
20066;DHT22;10193;48.884;9.182;2022-10-16T00:05:38;18.70;80.60
20066;DHT22;10193;48.884;9.182;2022-10-16T00:08:08;18.70;80.60
20066;DHT22;10193;48.884;9.182;2022-10-16T00:10:36;18.70;80.60
20066;DHT22;10193;48.884;9.182;2022-10-16T00:13:04;18.70;80.60
20066;DHT22;10193;48.884;9.182;2022-10-16T00:15:33;18.70;80.60
20066;DHT22;10193;48.884;9.182;2022-10-16T00:18:03;18.70;80.60
20066;DHT22;10193;48.884;9.182;2022-10-16T00:20:31;18.70;80.60
20066;DHT22;10193;48.884;9.182;2022-10-16T00:22:59;18.70;80.70
20066;DHT22;10193;48.884;9.182;2022-10-16T00:25:27;18.70;80.60
20066;DHT22;10193;48.884;9.182;2022-10-16T00:27:53;18.70;80.60
20066;DHT22;10193;48.884;9.182;2022-10-16T00:30:22;18.70;80.50
20066;DHT22;10193;48.884;9.182;2022-10-16T00:32:48;18.70;80.50
20066;DHT22;10193;48.884;9.182;2022-10-16T00:35:15;18.60;80.40
20066;DHT22;10193;48.884;9.182;2022-10-16T00:37:42;18.60;80.50
20066;DHT22;10193;48.884;9.182;2022-10-16T00:40:10;18.60;80.50
20066;DHT22;10193;48.884;9.182;2022-10-16T00:42:37;18.60;80.50
20066;DHT22;10193;48.884;9.182;2022-10-16T00:45:04;18.60;80.50
20066;DHT22;10193;48.884;9.182;2022-10-16T00:47:36;18.60;80.60
20066;DHT22;10193;48.884;9.182;2022-10-16T00:50:07;18.60;80.60
20066;DHT22;10193;48.884;9.182;2022-10-16T00:52:36;18.60;80.60
20066;DHT22;10193;48.884;9.182;2022-10-16T00:55:06;18.60;80.70
20066;DHT22;10193;48.884;9.182;2022-10-16T00:57:36;18.60;80.70
20066;DHT22;10193;48.884;9.182;2022-10-16T01:00:06;18.60;80.70
20066;DHT22;10193;48.884;9.182;2022-10-16T01:02:34;18.50;80.70
20066;DHT22;10193;48.884;9.182;2022-10-16T01:05:02;18.60;81.00
20066;DHT22;10193;48.884;9.182;2022-10-16T01:07:36;18.60;81.00
20066;DHT22;10193;48.884;9.182;2022-10-16T01:10:14;18.60;81.10
20066;DHT22;10193;48.884;9.182;2022-10-16T01:12:48;18.50;81.00
20066;DHT22;10193;48.884;9.182;2022-10-16T01:15:21;18.60;81.80
20066;DHT22;10193;48.884;9.182;2022-10-16T01:17:56;18.60;81.10
20066;DHT22;10193;48.884;9.182;2022-10-16T01:20:27;18.60;81.10
20066;DHT22;10193;48.884;9.182;2022-10-16T01:23:10;18.60;81.00
20066;DHT22;10193;48.884;9.182;2022-10-16T01:26:04;18.60;81.10
20066;DHT22;10193;48.884;9.182;2022-10-16T01:28:41;18.60;81.10
20066;DHT22;10193;48.884;9.182;2022-10-16T01:31:09;18.60;80.90
20066;DHT22;10193;48.884;9.182;2022-10-16T01:33:41;18.60;80.90
20066;DHT22;10193;48.884;9.182;2022-10-16T01:36:11;18.60;80.70
20066;DHT22;10193;48.884;9.182;2022-10-16T01:38:40;18.60;80.70
20066;DHT22;10193;48.884;9.182;2022-10-16T01:41:08;18.60;80.70
20066;DHT22;10193;48.884;9.182;2022-10-16T01:43:40;18.60;80.80
20066;DHT22;10193;48.884;9.182;2022-10-16T01:46:10;18.50;80.70
20066;DHT22;10193;48.884;9.182;2022-10-16T01:48:39;18.60;80.90
20066;DHT22;10193;48.884;9.182;2022-10-16T01:51:09;18.50;80.70
20066;DHT22;10193;48.884;9.182;2022-10-16T01:53:37;18.50;80.80
20066;DHT22;10193;48.884;9.182;2022-10-16T01:56:09;18.60;80.90
20066;DHT22;10193;48.884;9.182;2022-10-16T01:58:42;18.50;80.90
20066;DHT22;10193;48.884;9.182;2022-10-16T02:01:11;18.50;80.90
20066;DHT22;10193;48.884;9.182;2022-10-16T02:03:41;18.50;81.80
20066;DHT22;10193;48.884;9.182;2022-10-16T02:06:08;18.50;81.00
20066;DHT22;10193;48.884;9.182;2022-10-16T02:08:36;18.50;81.00
20066;DHT22;10193;48.884;9.182;2022-10-16T02:11:04;18.50;81.10
20066;DHT22;10193;48.884;9.182;2022-10-16T02:13:35;18.50;81.20
20066;DHT22;10193;48.884;9.182;2022-10-16T02:16:06;18.50;81.30
20066;DHT22;10193;48.884;9.182;2022-10-16T02:18:33;18.50;81.30
20066;DHT22;10193;48.884;9.182;2022-10-16T02:21:02;18.50;81.30
20066;DHT22;10193;48.884;9.182;2022-10-16T02:23:36;18.50;81.40
20066;DHT22;10193;48.884;9.182;2022-10-16T02:26:07;18.50;81.40
20066;DHT22;10193;48.884;9.182;2022-10-16T02:28:38;18.60;81.40
20066;DHT22;10193;48.884;9.182;2022-10-16T02:31:10;18.50;81.30
20066;DHT22;10193;48.884;9.182;2022-10-16T02:33:39;18.60;81.30
20066;DHT22;10193;48.884;9.182;2022-10-16T02:36:07;18.50;81.30
20066;DHT22;10193;48.884;9.182;2022-10-16T02:38:34;18.60;81.30
20066;DHT22;10193;48.884;9.182;2022-10-16T02:41:03;18.60;81.30
20066;DHT22;10193;48.884;9.182;2022-10-16T02:43:30;18.60;81.30
20066;DHT22;10193;48.884;9.182;2022-10-16T02:45:59;18.50;81.20
20066;DHT22;10193;48.884;9.182;2022-10-16T02:48:27;18.60;82.10
20066;DHT22;10193;48.884;9.182;2022-10-16T02:50:54;18.50;81.20
20066;DHT22;10193;48.884;9.182;2022-10-16T02:53:20;18.60;81.30
20066;DHT22;10193;48.884;9.182;2022-10-16T02:55:47;18.60;81.30
20066;DHT22;10193;48.884;9.182;2022-10-16T02:58:14;18.60;81.20
20066;DHT22;10193;48.884;9.182;2022-10-16T03:00:41;18.60;81.10
20066;DHT22;10193;48.884;9.182;2022-10-16T03:03:08;18.60;81.20
20066;DHT22;10193;48.884;9.182;2022-10-16T03:05:36;18.60;81.20
20066;DHT22;10193;48.884;9.182;2022-10-16T03:08:03;18.60;81.10
20066;DHT22;10193;48.884;9.182;2022-10-16T03:10:30;18.60;81.10
20066;DHT22;10193;48.884;9.182;2022-10-16T03:12:57;18.60;81.10
20066;DHT22;10193;48.884;9.182;2022-10-16T03:15:24;18.60;81.10
20066;DHT22;10193;48.884;9.182;2022-10-16T03:17:51;18.60;81.10
20066;DHT22;10193;48.884;9.182;2022-10-16T03:20:18;18.60;81.10
20066;DHT22;10193;48.884;9.182;2022-10-16T03:22:46;18.60;81.00
20066;DHT22;10193;48.884;9.182;2022-10-16T03:25:13;18.50;80.20
20066;DHT22;10193;48.884;9.182;2022-10-16T03:27:40;18.50;80.90
20066;DHT22;10193;48.884;9.182;2022-10-16T03:30:08;18.50;80.90
20066;DHT22;10193;48.884;9.182;2022-10-16T03:32:35;18.50;80.90
20066;DHT22;10193;48.884;9.182;2022-10-16T03:35:02;18.50;80.90
20066;DHT22;10193;48.884;9.182;2022-10-16T03:37:29;18.50;81.00
20066;DHT22;10193;48.884;9.182;2022-10-16T03:39:57;18.40;80.90
20066;DHT22;10193;48.884;9.182;2022-10-16T03:42:24;18.40;81.00
20066;DHT22;10193;48.884;9.182;2022-10-16T03:44:51;18.40;81.00
20066;DHT22;10193;48.884;9.182;2022-10-16T03:47:18;18.40;81.00
20066;DHT22;10193;48.884;9.182;2022-10-16T03:49:47;18.40;81.20
20066;DHT22;10193;48.884;9.182;2022-10-16T03:52:14;18.40;81.10
20066;DHT22;10193;48.884;9.182;2022-10-16T03:54:41;18.40;81.10
20066;DHT22;10193;48.884;9.182;2022-10-16T03:57:09;18.40;81.10
20066;DHT22;10193;48.884;9.182;2022-10-16T03:59:36;18.40;81.10
20066;DHT22;10193;48.884;9.182;2022-10-16T04:02:02;18.40;81.20
20066;DHT22;10193;48.884;9.182;2022-10-16T04:04:29;18.40;81.20
20066;DHT22;10193;48.884;9.182;2022-10-16T04:06:56;18.40;81.20
20066;DHT22;10193;48.884;9.182;2022-10-16T04:09:23;18.30;81.10
20066;DHT22;10193;48.884;9.182;2022-10-16T04:11:50;18.40;81.20
20066;DHT22;10193;48.884;9.182;2022-10-16T04:14:18;18.40;81.20
20066;DHT22;10193;48.884;9.182;2022-10-16T04:16:45;18.30;81.10
20066;DHT22;10193;48.884;9.182;2022-10-16T04:19:11;18.30;81.00
20066;DHT22;10193;48.884;9.182;2022-10-16T04:21:38;18.30;81.00
20066;DHT22;10193;48.884;9.182;2022-10-16T04:24:05;18.30;81.10
20066;DHT22;10193;48.884;9.182;2022-10-16T04:26:32;18.30;81.10
20066;DHT22;10193;48.884;9.182;2022-10-16T04:28:59;18.20;81.00
20066;DHT22;10193;48.884;9.182;2022-10-16T04:31:27;18.20;81.10
20066;DHT22;10193;48.884;9.182;2022-10-16T04:33:54;18.30;81.30
20066;DHT22;10193;48.884;9.182;2022-10-16T04:36:21;18.30;81.30
20066;DHT22;10193;48.884;9.182;2022-10-16T04:38:48;18.20;82.10
20066;DHT22;10193;48.884;9.182;2022-10-16T04:41:14;18.20;81.30
20066;DHT22;10193;48.884;9.182;2022-10-16T04:43:41;18.20;81.30
20066;DHT22;10193;48.884;9.182;2022-10-16T04:46:08;18.20;81.50
20066;DHT22;10193;48.884;9.182;2022-10-16T04:48:37;18.20;81.50
20066;DHT22;10193;48.884;9.182;2022-10-16T04:51:04;18.20;81.50
20066;DHT22;10193;48.884;9.182;2022-10-16T04:53:30;18.20;81.60
20066;DHT22;10193;48.884;9.182;2022-10-16T04:55:57;18.20;81.50
20066;DHT22;10193;48.884;9.182;2022-10-16T04:58:24;18.20;81.60
20066;DHT22;10193;48.884;9.182;2022-10-16T05:00:51;18.20;81.60
20066;DHT22;10193;48.884;9.182;2022-10-16T05:03:18;18.20;81.60
20066;DHT22;10193;48.884;9.182;2022-10-16T05:05:46;18.20;81.60
20066;DHT22;10193;48.884;9.182;2022-10-16T05:08:14;18.20;81.70
20066;DHT22;10193;48.884;9.182;2022-10-16T05:10:42;18.20;81.70
20066;DHT22;10193;48.884;9.182;2022-10-16T05:13:09;18.20;81.70
20066;DHT22;10193;48.884;9.182;2022-10-16T05:15:36;18.20;81.80
20066;DHT22;10193;48.884;9.182;2022-10-16T05:18:03;18.20;81.80
20066;DHT22;10193;48.884;9.182;2022-10-16T05:20:30;18.20;81.70
20066;DHT22;10193;48.884;9.182;2022-10-16T05:22:58;18.20;81.70
20066;DHT22;10193;48.884;9.182;2022-10-16T05:25:25;18.20;81.70
20066;DHT22;10193;48.884;9.182;2022-10-16T05:27:52;18.20;81.70
20066;DHT22;10193;48.884;9.182;2022-10-16T05:30:19;18.20;81.60
20066;DHT22;10193;48.884;9.182;2022-10-16T05:32:47;18.20;81.60
20066;DHT22;10193;48.884;9.182;2022-10-16T05:35:15;18.20;81.60
20066;DHT22;10193;48.884;9.182;2022-10-16T05:37:42;18.20;81.60
20066;DHT22;10193;48.884;9.182;2022-10-16T05:40:11;18.20;81.60
20066;DHT22;10193;48.884;9.182;2022-10-16T05:42:38;18.20;81.70
20066;DHT22;10193;48.884;9.182;2022-10-16T05:45:06;18.20;81.60
20066;DHT22;10193;48.884;9.182;2022-10-16T05:47:33;18.20;81.60
20066;DHT22;10193;48.884;9.182;2022-10-16T05:50:00;18.20;81.50
20066;DHT22;10193;48.884;9.182;2022-10-16T05:52:27;18.20;81.50
20066;DHT22;10193;48.884;9.182;2022-10-16T05:54:54;18.10;81.30
20066;DHT22;10193;48.884;9.182;2022-10-16T05:57:22;18.10;81.50
20066;DHT22;10193;48.884;9.182;2022-10-16T05:59:49;18.10;81.50
20066;DHT22;10193;48.884;9.182;2022-10-16T06:02:16;18.10;81.60
20066;DHT22;10193;48.884;9.182;2022-10-16T06:04:43;18.10;81.60
20066;DHT22;10193;48.884;9.182;2022-10-16T06:07:09;18.10;81.60
20066;DHT22;10193;48.884;9.182;2022-10-16T06:09:36;18.10;81.70
20066;DHT22;10193;48.884;9.182;2022-10-16T06:12:03;18.10;81.70
20066;DHT22;10193;48.884;9.182;2022-10-16T06:14:32;18.10;81.80
20066;DHT22;10193;48.884;9.182;2022-10-16T06:16:59;18.10;81.80
20066;DHT22;10193;48.884;9.182;2022-10-16T06:19:26;18.10;81.80
20066;DHT22;10193;48.884;9.182;2022-10-16T06:21:53;18.10;81.80
20066;DHT22;10193;48.884;9.182;2022-10-16T06:24:19;18.00;81.70
20066;DHT22;10193;48.884;9.182;2022-10-16T06:26:46;18.00;81.80
20066;DHT22;10193;48.884;9.182;2022-10-16T06:29:13;18.00;81.80
20066;DHT22;10193;48.884;9.182;2022-10-16T06:31:41;18.00;81.90
20066;DHT22;10193;48.884;9.182;2022-10-16T06:34:09;18.00;81.80
20066;DHT22;10193;48.884;9.182;2022-10-16T06:36:37;18.10;82.90
20066;DHT22;10193;48.884;9.182;2022-10-16T06:39:04;18.00;82.10
20066;DHT22;10193;48.884;9.182;2022-10-16T06:41:31;18.00;82.20
20066;DHT22;10193;48.884;9.182;2022-10-16T06:43:57;18.10;83.10
20066;DHT22;10193;48.884;9.182;2022-10-16T06:46:25;18.00;82.30
20066;DHT22;10193;48.884;9.182;2022-10-16T06:48:54;18.00;82.30
20066;DHT22;10193;48.884;9.182;2022-10-16T06:51:22;18.00;82.40
20066;DHT22;10193;48.884;9.182;2022-10-16T06:53:50;18.00;82.50
20066;DHT22;10193;48.884;9.182;2022-10-16T06:56:19;18.10;82.70
20066;DHT22;10193;48.884;9.182;2022-10-16T06:58:47;18.10;82.80
20066;DHT22;10193;48.884;9.182;2022-10-16T07:01:16;18.10;82.80
20066;DHT22;10193;48.884;9.182;2022-10-16T07:03:44;18.10;82.90
20066;DHT22;10193;48.884;9.182;2022-10-16T07:06:14;18.10;83.00
20066;DHT22;10193;48.884;9.182;2022-10-16T07:08:44;18.10;83.10
20066;DHT22;10193;48.884;9.182;2022-10-16T07:11:12;18.20;83.40
20066;DHT22;10193;48.884;9.182;2022-10-16T07:13:40;18.20;83.40
20066;DHT22;10193;48.884;9.182;2022-10-16T07:16:09;18.20;83.40
20066;DHT22;10193;48.884;9.182;2022-10-16T07:18:37;18.20;83.40
20066;DHT22;10193;48.884;9.182;2022-10-16T07:21:06;18.20;83.40
20066;DHT22;10193;48.884;9.182;2022-10-16T07:23:34;18.30;83.40
20066;DHT22;10193;48.884;9.182;2022-10-16T07:26:01;18.30;83.30
20066;DHT22;10193;48.884;9.182;2022-10-16T07:28:29;18.40;84.20
20066;DHT22;10193;48.884;9.182;2022-10-16T07:31:00;18.40;83.40
20066;DHT22;10193;48.884;9.182;2022-10-16T07:33:27;18.40;83.40
20066;DHT22;10193;48.884;9.182;2022-10-16T07:35:54;18.40;84.00
20066;DHT22;10193;48.884;9.182;2022-10-16T07:38:22;18.40;83.10
20066;DHT22;10193;48.884;9.182;2022-10-16T07:40:55;18.40;83.10
20066;DHT22;10193;48.884;9.182;2022-10-16T07:43:23;18.40;83.10
20066;DHT22;10193;48.884;9.182;2022-10-16T07:45:50;18.40;83.00
20066;DHT22;10193;48.884;9.182;2022-10-16T07:48:17;18.50;83.10
20066;DHT22;10193;48.884;9.182;2022-10-16T07:50:45;18.50;83.10
20066;DHT22;10193;48.884;9.182;2022-10-16T07:53:12;18.50;83.10
20066;DHT22;10193;48.884;9.182;2022-10-16T07:55:39;18.50;83.30
20066;DHT22;10193;48.884;9.182;2022-10-16T07:58:07;18.50;83.40
20066;DHT22;10193;48.884;9.182;2022-10-16T08:00:36;18.50;83.60
20066;DHT22;10193;48.884;9.182;2022-10-16T08:03:04;18.60;84.00
20066;DHT22;10193;48.884;9.182;2022-10-16T08:05:32;18.60;84.20
20066;DHT22;10193;48.884;9.182;2022-10-16T08:07:59;18.60;84.40
20066;DHT22;10193;48.884;9.182;2022-10-16T08:10:27;18.70;84.70
20066;DHT22;10193;48.884;9.182;2022-10-16T08:12:55;18.70;84.70
20066;DHT22;10193;48.884;9.182;2022-10-16T08:15:23;18.80;84.80
20066;DHT22;10193;48.884;9.182;2022-10-16T08:17:57;18.90;85.00
20066;DHT22;10193;48.884;9.182;2022-10-16T08:20:25;19.00;85.20
20066;DHT22;10193;48.884;9.182;2022-10-16T08:22:53;19.00;85.30
20066;DHT22;10193;48.884;9.182;2022-10-16T08:25:20;19.10;85.60
20066;DHT22;10193;48.884;9.182;2022-10-16T08:27:47;19.20;85.80
20066;DHT22;10193;48.884;9.182;2022-10-16T08:30:15;19.30;86.00
20066;DHT22;10193;48.884;9.182;2022-10-16T08:32:48;19.40;86.00
20066;DHT22;10193;48.884;9.182;2022-10-16T08:35:16;19.50;85.90
20066;DHT22;10193;48.884;9.182;2022-10-16T08:37:43;19.60;85.90
20066;DHT22;10193;48.884;9.182;2022-10-16T08:40:17;19.70;85.70
20066;DHT22;10193;48.884;9.182;2022-10-16T08:45:46;19.90;85.20
20066;DHT22;10193;48.884;9.182;2022-10-16T08:48:20;20.00;85.10
20066;DHT22;10193;48.884;9.182;2022-10-16T08:50:50;20.10;85.70
20066;DHT22;10193;48.884;9.182;2022-10-16T08:53:20;20.20;84.80
20066;DHT22;10193;48.884;9.182;2022-10-16T08:55:50;20.30;84.80
20066;DHT22;10193;48.884;9.182;2022-10-16T08:58:19;20.40;84.60
20066;DHT22;10193;48.884;9.182;2022-10-16T09:00:48;20.50;84.40
20066;DHT22;10193;48.884;9.182;2022-10-16T09:03:29;20.50;84.20
20066;DHT22;10193;48.884;9.182;2022-10-16T09:06:10;20.60;83.60
20066;DHT22;10193;48.884;9.182;2022-10-16T09:08:49;20.70;83.40
20066;DHT22;10193;48.884;9.182;2022-10-16T09:11:24;20.70;83.10
20066;DHT22;10193;48.884;9.182;2022-10-16T09:14:01;20.80;83.00
20066;DHT22;10193;48.884;9.182;2022-10-16T09:16:32;20.80;82.70
20066;DHT22;10193;48.884;9.182;2022-10-16T09:19:09;20.80;82.50
20066;DHT22;10193;48.884;9.182;2022-10-16T09:21:41;20.90;82.40
20066;DHT22;10193;48.884;9.182;2022-10-16T09:24:13;20.90;82.20
20066;DHT22;10193;48.884;9.182;2022-10-16T09:26:44;20.90;82.00
20066;DHT22;10193;48.884;9.182;2022-10-16T09:29:12;20.90;81.90
20066;DHT22;10193;48.884;9.182;2022-10-16T09:31:40;21.00;81.80
20066;DHT22;10193;48.884;9.182;2022-10-16T09:34:29;21.00;81.70
20066;DHT22;10193;48.884;9.182;2022-10-16T09:36:57;21.00;81.30
20066;DHT22;10193;48.884;9.182;2022-10-16T09:39:25;21.00;81.60
20066;DHT22;10193;48.884;9.182;2022-10-16T09:41:52;21.00;81.60
20066;DHT22;10193;48.884;9.182;2022-10-16T09:44:23;21.10;81.80
20066;DHT22;10193;48.884;9.182;2022-10-16T09:47:01;21.10;81.70
20066;DHT22;10193;48.884;9.182;2022-10-16T09:49:29;21.10;81.50
20066;DHT22;10193;48.884;9.182;2022-10-16T09:52:03;21.20;82.00
20066;DHT22;10193;48.884;9.182;2022-10-16T09:54:31;21.20;81.60
20066;DHT22;10193;48.884;9.182;2022-10-16T09:57:05;21.30;82.00
20066;DHT22;10193;48.884;9.182;2022-10-16T09:59:32;21.30;81.80
20066;DHT22;10193;48.884;9.182;2022-10-16T10:02:03;21.40;82.10
20066;DHT22;10193;48.884;9.182;2022-10-16T10:04:40;21.50;81.90
20066;DHT22;10193;48.884;9.182;2022-10-16T10:07:17;21.50;81.30
20066;DHT22;10193;48.884;9.182;2022-10-16T10:09:45;21.60;81.20
20066;DHT22;10193;48.884;9.182;2022-10-16T10:12:21;21.70;81.40
20066;DHT22;10193;48.884;9.182;2022-10-16T10:14:49;21.70;80.60
20066;DHT22;10193;48.884;9.182;2022-10-16T10:17:19;21.80;80.90
20066;DHT22;10193;48.884;9.182;2022-10-16T10:19:54;21.80;80.80
20066;DHT22;10193;48.884;9.182;2022-10-16T10:22:25;21.90;80.50
20066;DHT22;10193;48.884;9.182;2022-10-16T10:25:19;21.90;80.90
20066;DHT22;10193;48.884;9.182;2022-10-16T10:27:58;22.00;80.10
20066;DHT22;10193;48.884;9.182;2022-10-16T10:30:31;22.00;80.90
20066;DHT22;10193;48.884;9.182;2022-10-16T10:33:13;22.20;81.30
20066;DHT22;10193;48.884;9.182;2022-10-16T10:35:52;22.20;80.70
20066;DHT22;10193;48.884;9.182;2022-10-16T10:38:30;22.40;81.00
20066;DHT22;10193;48.884;9.182;2022-10-16T10:41:05;22.50;81.30
20066;DHT22;10193;48.884;9.182;2022-10-16T10:43:48;22.60;81.30
20066;DHT22;10193;48.884;9.182;2022-10-16T10:46:23;22.70;80.70
20066;DHT22;10193;48.884;9.182;2022-10-16T10:49:20;22.80;81.20
20066;DHT22;10193;48.884;9.182;2022-10-16T10:51:58;23.00;80.10
20066;DHT22;10193;48.884;9.182;2022-10-16T10:54:32;23.10;81.10
20066;DHT22;10193;48.884;9.182;2022-10-16T10:57:06;23.20;80.90
20066;DHT22;10193;48.884;9.182;2022-10-16T10:59:55;23.30;81.00
20066;DHT22;10193;48.884;9.182;2022-10-16T11:02:32;23.40;79.20
20066;DHT22;10193;48.884;9.182;2022-10-16T11:05:28;23.60;79.50
20066;DHT22;10193;48.884;9.182;2022-10-16T11:08:00;23.70;78.80
20066;DHT22;10193;48.884;9.182;2022-10-16T11:10:33;23.80;79.10
20066;DHT22;10193;48.884;9.182;2022-10-16T11:13:19;23.90;78.90
20066;DHT22;10193;48.884;9.182;2022-10-16T11:15:49;24.00;77.90
20066;DHT22;10193;48.884;9.182;2022-10-16T11:18:21;24.10;78.00
20066;DHT22;10193;48.884;9.182;2022-10-16T11:20:52;24.10;77.10
20066;DHT22;10193;48.884;9.182;2022-10-16T11:23:26;24.20;76.60
20066;DHT22;10193;48.884;9.182;2022-10-16T11:25:59;24.20;75.60
20066;DHT22;10193;48.884;9.182;2022-10-16T11:28:31;24.30;75.70
20066;DHT22;10193;48.884;9.182;2022-10-16T11:31:02;24.30;75.30
20066;DHT22;10193;48.884;9.182;2022-10-16T11:33:37;24.30;75.00
20066;DHT22;10193;48.884;9.182;2022-10-16T11:36:11;24.20;74.30
20066;DHT22;10193;48.884;9.182;2022-10-16T11:38:45;24.30;74.50
20066;DHT22;10193;48.884;9.182;2022-10-16T11:41:22;24.30;74.10
20066;DHT22;10193;48.884;9.182;2022-10-16T11:44:00;24.30;73.90
20066;DHT22;10193;48.884;9.182;2022-10-16T11:46:32;24.30;73.80
20066;DHT22;10193;48.884;9.182;2022-10-16T11:49:07;24.30;74.10
20066;DHT22;10193;48.884;9.182;2022-10-16T11:51:39;24.40;73.70
20066;DHT22;10193;48.884;9.182;2022-10-16T11:54:17;24.40;73.70
20066;DHT22;10193;48.884;9.182;2022-10-16T11:56:49;24.40;73.00
20066;DHT22;10193;48.884;9.182;2022-10-16T11:59:23;24.40;73.40
20066;DHT22;10193;48.884;9.182;2022-10-16T12:01:57;24.40;72.90
20066;DHT22;10193;48.884;9.182;2022-10-16T12:04:31;24.50;73.00
20066;DHT22;10193;48.884;9.182;2022-10-16T12:07:04;24.50;72.80
20066;DHT22;10193;48.884;9.182;2022-10-16T12:09:37;24.60;73.40
20066;DHT22;10193;48.884;9.182;2022-10-16T12:14:47;24.60;73.40
20066;DHT22;10193;48.884;9.182;2022-10-16T12:17:25;24.70;74.00
20066;DHT22;10193;48.884;9.182;2022-10-16T12:20:01;24.70;72.50
20066;DHT22;10193;48.884;9.182;2022-10-16T12:22:29;24.70;71.80
20066;DHT22;10193;48.884;9.182;2022-10-16T12:24:58;24.70;72.20
20066;DHT22;10193;48.884;9.182;2022-10-16T12:27:28;24.70;71.70
20066;DHT22;10193;48.884;9.182;2022-10-16T12:29:57;24.80;71.50
20066;DHT22;10193;48.884;9.182;2022-10-16T12:32:29;24.80;71.30
20066;DHT22;10193;48.884;9.182;2022-10-16T12:34:57;24.80;70.50
20066;DHT22;10193;48.884;9.182;2022-10-16T12:37:26;24.80;70.60
20066;DHT22;10193;48.884;9.182;2022-10-16T12:39:55;24.80;70.30
20066;DHT22;10193;48.884;9.182;2022-10-16T12:42:32;24.80;70.10
20066;DHT22;10193;48.884;9.182;2022-10-16T12:45:00;24.70;69.30
20066;DHT22;10193;48.884;9.182;2022-10-16T12:47:46;24.70;69.80
20066;DHT22;10193;48.884;9.182;2022-10-16T12:50:29;24.70;68.90
20066;DHT22;10193;48.884;9.182;2022-10-16T12:52:57;24.70;68.90
20066;DHT22;10193;48.884;9.182;2022-10-16T12:55:24;24.70;70.00
20066;DHT22;10193;48.884;9.182;2022-10-16T12:58:16;24.80;70.00
20066;DHT22;10193;48.884;9.182;2022-10-16T13:00:52;24.70;68.80
20066;DHT22;10193;48.884;9.182;2022-10-16T13:03:43;24.80;69.50
20066;DHT22;10193;48.884;9.182;2022-10-16T13:06:28;24.80;68.50
20066;DHT22;10193;48.884;9.182;2022-10-16T13:09:27;24.80;68.60
20066;DHT22;10193;48.884;9.182;2022-10-16T13:12:07;24.80;68.80
20066;DHT22;10193;48.884;9.182;2022-10-16T13:17:56;24.90;68.10
20066;DHT22;10193;48.884;9.182;2022-10-16T13:20:31;24.90;68.70
20066;DHT22;10193;48.884;9.182;2022-10-16T13:23:07;25.00;68.60
20066;DHT22;10193;48.884;9.182;2022-10-16T13:25:44;25.00;68.30
20066;DHT22;10193;48.884;9.182;2022-10-16T13:28:13;25.00;68.30
20066;DHT22;10193;48.884;9.182;2022-10-16T13:30:41;25.00;68.60
20066;DHT22;10193;48.884;9.182;2022-10-16T13:33:16;25.00;68.30
20066;DHT22;10193;48.884;9.182;2022-10-16T13:35:49;25.10;67.80
20066;DHT22;10193;48.884;9.182;2022-10-16T13:38:18;25.10;67.80
20066;DHT22;10193;48.884;9.182;2022-10-16T13:40:50;25.10;68.10
20066;DHT22;10193;48.884;9.182;2022-10-16T13:43:19;25.10;67.60
20066;DHT22;10193;48.884;9.182;2022-10-16T13:45:54;25.10;67.80
20066;DHT22;10193;48.884;9.182;2022-10-16T13:48:23;25.10;68.20
20066;DHT22;10193;48.884;9.182;2022-10-16T13:51:00;25.10;67.70
20066;DHT22;10193;48.884;9.182;2022-10-16T13:53:30;25.20;67.40
20066;DHT22;10193;48.884;9.182;2022-10-16T13:55:57;25.20;67.50
20066;DHT22;10193;48.884;9.182;2022-10-16T13:58:25;25.20;67.40
20066;DHT22;10193;48.884;9.182;2022-10-16T14:00:55;25.20;67.20
20066;DHT22;10193;48.884;9.182;2022-10-16T14:03:24;25.10;67.00
20066;DHT22;10193;48.884;9.182;2022-10-16T14:05:53;25.10;66.90
20066;DHT22;10193;48.884;9.182;2022-10-16T14:08:21;25.20;66.60
20066;DHT22;10193;48.884;9.182;2022-10-16T14:10:49;25.10;66.50
20066;DHT22;10193;48.884;9.182;2022-10-16T14:13:19;25.10;66.40
20066;DHT22;10193;48.884;9.182;2022-10-16T14:15:53;25.10;66.20
20066;DHT22;10193;48.884;9.182;2022-10-16T14:18:25;25.00;65.70
20066;DHT22;10193;48.884;9.182;2022-10-16T14:20:52;25.00;66.00
20066;DHT22;10193;48.884;9.182;2022-10-16T14:23:22;25.00;66.00
20066;DHT22;10193;48.884;9.182;2022-10-16T14:25:51;25.00;66.00
20066;DHT22;10193;48.884;9.182;2022-10-16T14:28:20;25.00;66.10
20066;DHT22;10193;48.884;9.182;2022-10-16T14:30:53;24.90;66.20
20066;DHT22;10193;48.884;9.182;2022-10-16T14:33:24;24.90;65.90
20066;DHT22;10193;48.884;9.182;2022-10-16T14:36:05;24.90;67.10
20066;DHT22;10193;48.884;9.182;2022-10-16T14:38:38;24.90;65.70
20066;DHT22;10193;48.884;9.182;2022-10-16T14:41:06;24.90;66.40
20066;DHT22;10193;48.884;9.182;2022-10-16T14:43:34;24.90;66.40
20066;DHT22;10193;48.884;9.182;2022-10-16T14:46:05;24.90;66.40
20066;DHT22;10193;48.884;9.182;2022-10-16T14:48:34;24.90;66.40
20066;DHT22;10193;48.884;9.182;2022-10-16T14:51:01;24.90;66.30
20066;DHT22;10193;48.884;9.182;2022-10-16T14:53:28;24.90;66.30
20066;DHT22;10193;48.884;9.182;2022-10-16T14:55:55;24.90;66.40
20066;DHT22;10193;48.884;9.182;2022-10-16T14:58:22;24.90;66.40
20066;DHT22;10193;48.884;9.182;2022-10-16T15:00:50;24.90;66.30
20066;DHT22;10193;48.884;9.182;2022-10-16T15:03:17;24.90;66.30
20066;DHT22;10193;48.884;9.182;2022-10-16T15:05:45;24.90;66.40
20066;DHT22;10193;48.884;9.182;2022-10-16T15:08:12;24.90;66.10
20066;DHT22;10193;48.884;9.182;2022-10-16T15:10:41;25.00;67.00
20066;DHT22;10193;48.884;9.182;2022-10-16T15:13:11;24.90;66.00
20066;DHT22;10193;48.884;9.182;2022-10-16T15:15:41;24.90;65.80
20066;DHT22;10193;48.884;9.182;2022-10-16T15:18:08;24.90;65.80
20066;DHT22;10193;48.884;9.182;2022-10-16T15:20:37;24.90;65.80
20066;DHT22;10193;48.884;9.182;2022-10-16T15:23:10;24.90;65.60
20066;DHT22;10193;48.884;9.182;2022-10-16T15:25:43;24.80;65.30
20066;DHT22;10193;48.884;9.182;2022-10-16T15:28:11;24.80;65.20
20066;DHT22;10193;48.884;9.182;2022-10-16T15:30:38;24.80;65.20
20066;DHT22;10193;48.884;9.182;2022-10-16T15:33:11;24.80;65.20
20066;DHT22;10193;48.884;9.182;2022-10-16T15:35:39;24.70;64.90
20066;DHT22;10193;48.884;9.182;2022-10-16T15:38:10;24.70;65.10
20066;DHT22;10193;48.884;9.182;2022-10-16T15:40:37;24.70;65.10
20066;DHT22;10193;48.884;9.182;2022-10-16T15:43:04;24.60;65.10
20066;DHT22;10193;48.884;9.182;2022-10-16T15:45:31;24.60;65.10
20066;DHT22;10193;48.884;9.182;2022-10-16T15:47:58;24.60;65.20
20066;DHT22;10193;48.884;9.182;2022-10-16T15:50:26;24.50;65.20
20066;DHT22;10193;48.884;9.182;2022-10-16T15:52:53;24.50;65.30
20066;DHT22;10193;48.884;9.182;2022-10-16T15:55:22;24.50;65.30
20066;DHT22;10193;48.884;9.182;2022-10-16T15:57:49;24.50;65.30